Terminal Aerodrome Forecast
Issued by NWS

Home | Current Version | Previous Version | Text Only | Print | Product List | Glossary On
Versions: 1 2 3 4 5 6 7 8 9 10 11 12 13 14 15
000
FTAK31 PANC 242008 AAA
TAFAGK
TAF AMD
PAGK 242008Z 2420/2518 VRB03KT P6SM BKN015 OVC025
      TEMPO 2420/2424 2SM -SN BKN015
     FM250000 VRB03KT 2SM -SN OVC018
     FM250500 33005KT P6SM -SHSN SCT020 BKN050
     FM251100 VRB03KT P6SM VCFG SCT005 BKN025=

USA.gov is the U.S. government's official web portal to all federal, state and local government web resources and services.